logo
Search for airport 
image banner adimage banner adimage banner ad
image banner ad

YCHAL - Challa

Located in Cooladar Hill, Australia

ICAO - , IATA -

Data provided by Airmate  

General information

Coordinates: S28°18'2" E118°18'14"
Elevation is 1407 feet MSL.
Magnetic variation is 0° East
View others Airports in Western Australia

Operational data

Special qualification required
Current time UTC:
Current local time:
Weather at : - ( 0 km )
METAR: KUKF 171410Z AUTO 00000KT 10SM CLR 28/20 A3006 RMK AO2
View NOTAMs / SUP AIP / TFR affecting this airport [VIEW]
Communications frequencies: [VIEW]

Runways:

RWY identifierQFULength (ft)Width (ft)SurfaceLDA (ft)
29290°327594DIRT
11110°327594DIRT
0223°394698DIRT
20203°394698DIRT

Airport contact information

Address: Cooladar Hill Australia

Satellite view of YCHAL